DLH9876 EDDF-EDDC
Flight info
| Callsign | DLH9876 |
|---|---|
| Flight time | 0h 36m |
| Altitude | 23000 |
| Route | SULUS7S/18 SULUS L984 KULOK Z715 ABKIS/N0411F220 Q240 DRN |
| Aircraft | A319/M-SDE3FGHIRWY/LB1 |
Departure
| Time | 2026-05-06 14:56 |
|---|---|
| Airport | Frankfurt Main Airport (EDDF) |
Arrival
| Time | 2026-05-06 15:33 |
|---|---|
| Airport | Dresden Airport (EDDC) |
| Time | Latitude | Longitude | Altitude | Speed | Heading |
|---|---|---|---|---|---|
| 2026-05-06 14:14 | 50.04532 | 8.56587 | 356 ft | 0 kts | 115° |
| 2026-05-06 14:43 | 50.04536 | 8.56577 | 364 ft | 4 kts | 115° |
| 2026-05-06 14:43 | 50.04547 | 8.56539 | 361 ft | 4 kts | 117° |
| 2026-05-06 14:43 | 50.04561 | 8.56502 | 362 ft | 4 kts | 125° |
| 2026-05-06 14:43 | 50.04578 | 8.56473 | 363 ft | 4 kts | 157° |
| 2026-05-06 14:44 | 50.04592 | 8.56469 | 361 ft | 1 kts | 205° |
| 2026-05-06 14:44 | 50.04573 | 8.56456 | 359 ft | 3 kts | 205° |
| 2026-05-06 14:44 | 50.04569 | 8.56453 | 361 ft | 0 kts | 205° |
| 2026-05-06 14:49 | 50.04562 | 8.56448 | 363 ft | 3 kts | 205° |
| 2026-05-06 14:49 | 50.04529 | 8.56413 | 360 ft | 8 kts | 227° |
| 2026-05-06 14:49 | 50.04497 | 8.56306 | 358 ft | 13 kts | 250° |
| 2026-05-06 14:49 | 50.04464 | 8.56167 | 358 ft | 14 kts | 249° |
| 2026-05-06 14:50 | 50.04426 | 8.56045 | 361 ft | 12 kts | 229° |
| 2026-05-06 14:50 | 50.04348 | 8.56054 | 359 ft | 13 kts | 160° |
| 2026-05-06 14:50 | 50.04264 | 8.56034 | 357 ft | 14 kts | 235° |
| 2026-05-06 14:50 | 50.04227 | 8.55889 | 353 ft | 15 kts | 249° |
| 2026-05-06 14:51 | 50.04189 | 8.55728 | 355 ft | 16 kts | 249° |
| 2026-05-06 14:51 | 50.04147 | 8.55554 | 356 ft | 18 kts | 249° |
| 2026-05-06 14:51 | 50.04104 | 8.55375 | 358 ft | 18 kts | 250° |
| 2026-05-06 14:51 | 50.04061 | 8.55198 | 356 ft | 17 kts | 249° |
| 2026-05-06 14:52 | 50.04019 | 8.55021 | 358 ft | 18 kts | 250° |
| 2026-05-06 14:52 | 50.03975 | 8.54834 | 356 ft | 19 kts | 250° |
| 2026-05-06 14:52 | 50.03925 | 8.54630 | 349 ft | 21 kts | 250° |
| 2026-05-06 14:52 | 50.03872 | 8.54412 | 352 ft | 22 kts | 245° |
| 2026-05-06 14:53 | 50.03795 | 8.54202 | 345 ft | 23 kts | 249° |
| 2026-05-06 14:53 | 50.03738 | 8.53968 | 344 ft | 23 kts | 249° |
| 2026-05-06 14:53 | 50.03681 | 8.53730 | 342 ft | 24 kts | 249° |
| 2026-05-06 14:53 | 50.03620 | 8.53483 | 337 ft | 25 kts | 249° |
| 2026-05-06 14:54 | 50.03559 | 8.53230 | 338 ft | 25 kts | 249° |
| 2026-05-06 14:54 | 50.03497 | 8.52977 | 335 ft | 24 kts | 249° |
| 2026-05-06 14:54 | 50.03434 | 8.52733 | 336 ft | 20 kts | 248° |
| 2026-05-06 14:54 | 50.03354 | 8.52597 | 334 ft | 18 kts | 191° |
| 2026-05-06 14:55 | 50.03305 | 8.52594 | 336 ft | 0 kts | 179° |
| 2026-05-06 14:55 | 50.03293 | 8.52595 | 333 ft | 10 kts | 179° |
| 2026-05-06 14:56 | 50.02922 | 8.52597 | 336 ft | 94 kts | 180° |
| 2026-05-06 14:56 | 50.02034 | 8.52604 | 335 ft | 159 kts | 180° |
| 2026-05-06 14:56 | 50.00828 | 8.52612 | 801 ft | 172 kts | 182° |
| 2026-05-06 14:56 | 49.99631 | 8.52630 | 1626 ft | 174 kts | 182° |
| 2026-05-06 14:57 | 49.98372 | 8.52654 | 2197 ft | 191 kts | 182° |
| 2026-05-06 14:57 | 49.96995 | 8.53195 | 2601 ft | 222 kts | 156° |
| 2026-05-06 14:57 | 49.95794 | 8.54936 | 3086 ft | 255 kts | 125° |
| 2026-05-06 14:57 | 49.94884 | 8.57421 | 3949 ft | 270 kts | 121° |
| 2026-05-06 14:58 | 49.93969 | 8.59997 | 5086 ft | 275 kts | 121° |
| 2026-05-06 14:58 | 49.93045 | 8.62610 | 6254 ft | 278 kts | 122° |
| 2026-05-06 14:58 | 49.92107 | 8.65254 | 7305 ft | 282 kts | 121° |
| 2026-05-06 14:58 | 49.91153 | 8.67930 | 8286 ft | 286 kts | 122° |
| 2026-05-06 14:59 | 49.90183 | 8.70642 | 9262 ft | 290 kts | 122° |
| 2026-05-06 14:59 | 49.89192 | 8.73398 | 10115 ft | 298 kts | 121° |
| 2026-05-06 14:59 | 49.88139 | 8.76309 | 10473 ft | 322 kts | 122° |
| 2026-05-06 14:59 | 49.86997 | 8.79455 | 10770 ft | 346 kts | 121° |
| 2026-05-06 15:00 | 49.85793 | 8.82772 | 11300 ft | 359 kts | 121° |
| 2026-05-06 15:00 | 49.84560 | 8.86173 | 12052 ft | 365 kts | 121° |
| 2026-05-06 15:00 | 49.83309 | 8.89626 | 12847 ft | 369 kts | 121° |
| 2026-05-06 15:00 | 49.82043 | 8.93116 | 13627 ft | 373 kts | 121° |
| 2026-05-06 15:01 | 49.80766 | 8.96639 | 14321 ft | 378 kts | 121° |
| 2026-05-06 15:01 | 49.79472 | 9.00201 | 15015 ft | 381 kts | 121° |
| 2026-05-06 15:01 | 49.78162 | 9.03792 | 15741 ft | 385 kts | 121° |
| 2026-05-06 15:01 | 49.76861 | 9.07424 | 16458 ft | 389 kts | 118° |
| 2026-05-06 15:02 | 49.75866 | 9.11343 | 17175 ft | 394 kts | 108° |
| 2026-05-06 15:02 | 49.75197 | 9.15475 | 17870 ft | 398 kts | 106° |
| 2026-05-06 15:02 | 49.74536 | 9.19648 | 18483 ft | 402 kts | 105° |
| 2026-05-06 15:02 | 49.73860 | 9.23851 | 19101 ft | 405 kts | 106° |
| 2026-05-06 15:03 | 49.73174 | 9.28084 | 19713 ft | 408 kts | 106° |
| 2026-05-06 15:03 | 49.72477 | 9.32358 | 20291 ft | 411 kts | 106° |
| 2026-05-06 15:03 | 49.71775 | 9.36645 | 20876 ft | 414 kts | 106° |
| 2026-05-06 15:03 | 49.71064 | 9.40976 | 21445 ft | 417 kts | 106° |
| 2026-05-06 15:04 | 49.70349 | 9.45332 | 21987 ft | 420 kts | 106° |
| 2026-05-06 15:04 | 49.69630 | 9.49713 | 22525 ft | 423 kts | 106° |
| 2026-05-06 15:04 | 49.68901 | 9.54134 | 22749 ft | 425 kts | 107° |
| 2026-05-06 15:04 | 49.68157 | 9.58615 | 22789 ft | 438 kts | 107° |
| 2026-05-06 15:05 | 49.67589 | 9.63297 | 22790 ft | 447 kts | 98° |
| 2026-05-06 15:05 | 49.67511 | 9.68107 | 22792 ft | 452 kts | 89° |
| 2026-05-06 15:05 | 49.67938 | 9.72921 | 22792 ft | 455 kts | 79° |
| 2026-05-06 15:05 | 49.68758 | 9.77650 | 22793 ft | 456 kts | 76° |
| 2026-05-06 15:06 | 49.69601 | 9.82371 | 22787 ft | 456 kts | 76° |
| 2026-05-06 15:06 | 49.70435 | 9.87102 | 22797 ft | 456 kts | 76° |
| 2026-05-06 15:06 | 49.71340 | 9.91794 | 22794 ft | 457 kts | 71° |
| 2026-05-06 15:06 | 49.72662 | 9.96269 | 22792 ft | 459 kts | 62° |
| 2026-05-06 15:07 | 49.74399 | 10.00404 | 22761 ft | 460 kts | 55° |
| 2026-05-06 15:07 | 49.76266 | 10.04424 | 22769 ft | 460 kts | 56° |
| 2026-05-06 15:07 | 49.78134 | 10.08451 | 22779 ft | 460 kts | 56° |
| 2026-05-06 15:07 | 49.80006 | 10.12500 | 22767 ft | 460 kts | 56° |
| 2026-05-06 15:08 | 49.81835 | 10.16462 | 22779 ft | 460 kts | 56° |
| 2026-05-06 15:08 | 49.83690 | 10.20497 | 22780 ft | 460 kts | 56° |
| 2026-05-06 15:08 | 49.85566 | 10.24588 | 22780 ft | 460 kts | 56° |
| 2026-05-06 15:08 | 49.87394 | 10.28577 | 22776 ft | 460 kts | 56° |
| 2026-05-06 15:09 | 49.89241 | 10.32618 | 22775 ft | 460 kts | 56° |
| 2026-05-06 15:09 | 49.91087 | 10.36660 | 22775 ft | 459 kts | 56° |
| 2026-05-06 15:09 | 49.92932 | 10.40706 | 22768 ft | 460 kts | 56° |
| 2026-05-06 15:09 | 49.94782 | 10.44763 | 22779 ft | 460 kts | 56° |
| 2026-05-06 15:10 | 49.96627 | 10.48812 | 22782 ft | 459 kts | 56° |
| 2026-05-06 15:10 | 49.98467 | 10.52856 | 22763 ft | 459 kts | 56° |
| 2026-05-06 15:10 | 50.00309 | 10.56919 | 22758 ft | 459 kts | 56° |
| 2026-05-06 15:10 | 50.02148 | 10.60987 | 22764 ft | 460 kts | 56° |
| 2026-05-06 15:11 | 50.03982 | 10.65049 | 22755 ft | 460 kts | 57° |
| 2026-05-06 15:11 | 50.05599 | 10.69389 | 22761 ft | 458 kts | 66° |
| 2026-05-06 15:11 | 50.06717 | 10.73956 | 22769 ft | 456 kts | 76° |
| 2026-05-06 15:11 | 50.07365 | 10.78773 | 22770 ft | 453 kts | 85° |
| 2026-05-06 15:12 | 50.07527 | 10.83649 | 22777 ft | 451 kts | 92° |
| 2026-05-06 15:12 | 50.07521 | 10.88528 | 22777 ft | 451 kts | 92° |
| 2026-05-06 15:12 | 50.07516 | 10.93406 | 22777 ft | 451 kts | 92° |
| 2026-05-06 15:12 | 50.07516 | 10.98294 | 22779 ft | 451 kts | 92° |
| 2026-05-06 15:13 | 50.07517 | 11.03169 | 22769 ft | 451 kts | 92° |
| 2026-05-06 15:13 | 50.07514 | 11.08052 | 22768 ft | 452 kts | 92° |
| 2026-05-06 15:13 | 50.07506 | 11.12948 | 22766 ft | 452 kts | 92° |
| 2026-05-06 15:13 | 50.07492 | 11.17846 | 22769 ft | 452 kts | 92° |
| 2026-05-06 15:14 | 50.07476 | 11.22746 | 22770 ft | 453 kts | 92° |
| 2026-05-06 15:14 | 50.07755 | 11.27622 | 22753 ft | 456 kts | 79° |
| 2026-05-06 15:14 | 50.08844 | 11.32272 | 22771 ft | 460 kts | 63° |
| 2026-05-06 15:14 | 50.10507 | 11.36527 | 22777 ft | 461 kts | 59° |
| 2026-05-06 15:15 | 50.12223 | 11.40751 | 22773 ft | 461 kts | 59° |
| 2026-05-06 15:15 | 50.13948 | 11.44969 | 22776 ft | 461 kts | 59° |
| 2026-05-06 15:15 | 50.15673 | 11.49193 | 22781 ft | 462 kts | 59° |
| 2026-05-06 15:15 | 50.17394 | 11.53412 | 22773 ft | 462 kts | 59° |
| 2026-05-06 15:16 | 50.19118 | 11.57655 | 22770 ft | 463 kts | 59° |
| 2026-05-06 15:16 | 50.20838 | 11.61910 | 22775 ft | 464 kts | 59° |
| 2026-05-06 15:16 | 50.22533 | 11.66118 | 22780 ft | 465 kts | 59° |
| 2026-05-06 15:16 | 50.24253 | 11.70396 | 22785 ft | 465 kts | 59° |
| 2026-05-06 15:17 | 50.25974 | 11.74680 | 22791 ft | 466 kts | 59° |
| 2026-05-06 15:17 | 50.27698 | 11.78973 | 22794 ft | 466 kts | 59° |
| 2026-05-06 15:17 | 50.29420 | 11.83263 | 22801 ft | 466 kts | 59° |
| 2026-05-06 15:17 | 50.31142 | 11.87562 | 22808 ft | 466 kts | 59° |
| 2026-05-06 15:18 | 50.32860 | 11.91864 | 22814 ft | 466 kts | 59° |
| 2026-05-06 15:18 | 50.34576 | 11.96164 | 22816 ft | 466 kts | 59° |
| 2026-05-06 15:18 | 50.36289 | 12.00464 | 22813 ft | 466 kts | 60° |
| 2026-05-06 15:18 | 50.38002 | 12.04778 | 22804 ft | 466 kts | 60° |
| 2026-05-06 15:19 | 50.39709 | 12.09084 | 22806 ft | 466 kts | 60° |
| 2026-05-06 15:19 | 50.41418 | 12.13401 | 22776 ft | 466 kts | 60° |
| 2026-05-06 15:19 | 50.43127 | 12.17724 | 22765 ft | 467 kts | 60° |
| 2026-05-06 15:19 | 50.44837 | 12.22061 | 22746 ft | 468 kts | 60° |
| 2026-05-06 15:20 | 50.46558 | 12.26436 | 22512 ft | 472 kts | 60° |
| 2026-05-06 15:20 | 50.48280 | 12.30821 | 22240 ft | 471 kts | 60° |
| 2026-05-06 15:20 | 50.50003 | 12.35201 | 21972 ft | 470 kts | 60° |
| 2026-05-06 15:20 | 50.51706 | 12.39532 | 21264 ft | 464 kts | 60° |
| 2026-05-06 15:21 | 50.53390 | 12.43829 | 20473 ft | 460 kts | 60° |
| 2026-05-06 15:21 | 50.55059 | 12.48100 | 19710 ft | 455 kts | 60° |
| 2026-05-06 15:21 | 50.56686 | 12.52266 | 18984 ft | 450 kts | 60° |
| 2026-05-06 15:21 | 50.58315 | 12.56440 | 18280 ft | 446 kts | 59° |
| 2026-05-06 15:22 | 50.59929 | 12.60585 | 17538 ft | 442 kts | 60° |
| 2026-05-06 15:22 | 50.61520 | 12.64684 | 16889 ft | 436 kts | 60° |
| 2026-05-06 15:22 | 50.63092 | 12.68737 | 16262 ft | 430 kts | 60° |
| 2026-05-06 15:22 | 50.64641 | 12.72740 | 15682 ft | 427 kts | 60° |
| 2026-05-06 15:23 | 50.66180 | 12.76725 | 15080 ft | 423 kts | 60° |
| 2026-05-06 15:23 | 50.67706 | 12.80675 | 14483 ft | 420 kts | 60° |
| 2026-05-06 15:23 | 50.69221 | 12.84594 | 13883 ft | 417 kts | 60° |
| 2026-05-06 15:23 | 50.70220 | 12.87184 | 13451 ft | 416 kts | 60° |
| 2026-05-06 15:24 | 50.71711 | 12.91064 | 12780 ft | 412 kts | 60° |
| 2026-05-06 15:24 | 50.73185 | 12.94911 | 12112 ft | 407 kts | 60° |
| 2026-05-06 15:24 | 50.74644 | 12.98724 | 11418 ft | 403 kts | 60° |
| 2026-05-06 15:24 | 50.76089 | 13.02496 | 10805 ft | 398 kts | 60° |
| 2026-05-06 15:25 | 50.77481 | 13.06132 | 10657 ft | 374 kts | 60° |
| 2026-05-06 15:25 | 50.78785 | 13.09540 | 10535 ft | 351 kts | 60° |
| 2026-05-06 15:25 | 50.80012 | 13.12752 | 10411 ft | 332 kts | 60° |
| 2026-05-06 15:25 | 50.81177 | 13.15803 | 10274 ft | 318 kts | 60° |
| 2026-05-06 15:26 | 50.82303 | 13.18772 | 10042 ft | 312 kts | 60° |
| 2026-05-06 15:26 | 50.83411 | 13.21699 | 9804 ft | 309 kts | 60° |
| 2026-05-06 15:26 | 50.84515 | 13.24616 | 9635 ft | 308 kts | 60° |
| 2026-05-06 15:26 | 50.85615 | 13.27528 | 9495 ft | 309 kts | 60° |
| 2026-05-06 15:27 | 50.86717 | 13.30445 | 9295 ft | 310 kts | 61° |
| 2026-05-06 15:27 | 50.87818 | 13.33361 | 8818 ft | 311 kts | 60° |
| 2026-05-06 15:27 | 50.88918 | 13.36274 | 8450 ft | 307 kts | 60° |
| 2026-05-06 15:27 | 50.90009 | 13.39166 | 8019 ft | 306 kts | 60° |
| 2026-05-06 15:28 | 50.91104 | 13.42071 | 7498 ft | 308 kts | 60° |
| 2026-05-06 15:28 | 50.92187 | 13.44943 | 7240 ft | 300 kts | 60° |
| 2026-05-06 15:28 | 50.93276 | 13.47747 | 6897 ft | 297 kts | 56° |
| 2026-05-06 15:28 | 50.94651 | 13.50130 | 6434 ft | 297 kts | 43° |
| 2026-05-06 15:29 | 50.96221 | 13.52363 | 5616 ft | 309 kts | 42° |
| 2026-05-06 15:29 | 50.97746 | 13.54823 | 4795 ft | 314 kts | 49° |
| 2026-05-06 15:29 | 50.99229 | 13.57350 | 4193 ft | 308 kts | 44° |
| 2026-05-06 15:29 | 51.00792 | 13.59537 | 3777 ft | 292 kts | 40° |
| 2026-05-06 15:30 | 51.02308 | 13.61551 | 3395 ft | 276 kts | 39° |
| 2026-05-06 15:30 | 51.03696 | 13.63437 | 3049 ft | 250 kts | 40° |
| 2026-05-06 15:30 | 51.04954 | 13.65162 | 2728 ft | 227 kts | 39° |
| 2026-05-06 15:30 | 51.06098 | 13.66730 | 2444 ft | 208 kts | 39° |
| 2026-05-06 15:31 | 51.07153 | 13.68175 | 2206 ft | 192 kts | 39° |
| 2026-05-06 15:31 | 51.08127 | 13.69511 | 1919 ft | 177 kts | 39° |
| 2026-05-06 15:31 | 51.09004 | 13.70713 | 1707 ft | 156 kts | 39° |
| 2026-05-06 15:32 | 51.10486 | 13.72749 | 1325 ft | 132 kts | 40° |
| 2026-05-06 15:32 | 51.11175 | 13.73696 | 1132 ft | 130 kts | 38° |
| 2026-05-06 15:32 | 51.11848 | 13.74623 | 982 ft | 130 kts | 39° |
| 2026-05-06 15:32 | 51.12544 | 13.75569 | 802 ft | 130 kts | 39° |
| 2026-05-06 15:33 | 51.13166 | 13.76416 | 751 ft | 96 kts | 43° |
| 2026-05-06 15:33 | 51.13479 | 13.76858 | 738 ft | 43 kts | 41° |
| 2026-05-06 15:33 | 51.13701 | 13.77164 | 730 ft | 41 kts | 41° |
| 2026-05-06 15:33 | 51.13878 | 13.77411 | 722 ft | 29 kts | 47° |
| 2026-05-06 15:34 | 51.13857 | 13.77593 | 718 ft | 16 kts | 129° |
| 2026-05-06 15:34 | 51.13838 | 13.77628 | 716 ft | 0 kts | 132° |
| 2026-05-06 15:34 | 51.13822 | 13.77655 | 717 ft | 6 kts | 132° |
| 2026-05-06 15:35 | 51.13778 | 13.77713 | 715 ft | 10 kts | 160° |
| 2026-05-06 15:35 | 51.13720 | 13.77676 | 719 ft | 9 kts | 216° |
| 2026-05-06 15:35 | 51.13679 | 13.77618 | 717 ft | 7 kts | 222° |
| 2026-05-06 15:35 | 51.13643 | 13.77565 | 721 ft | 7 kts | 222° |
| 2026-05-06 15:36 | 51.13604 | 13.77511 | 720 ft | 8 kts | 219° |
| 2026-05-06 15:36 | 51.13547 | 13.77431 | 724 ft | 13 kts | 223° |
| 2026-05-06 15:36 | 51.13466 | 13.77323 | 732 ft | 17 kts | 220° |
| 2026-05-06 15:36 | 51.13366 | 13.77184 | 738 ft | 21 kts | 221° |
| 2026-05-06 15:37 | 51.13246 | 13.77021 | 744 ft | 25 kts | 221° |
| 2026-05-06 15:37 | 51.13116 | 13.76839 | 748 ft | 24 kts | 221° |
| 2026-05-06 15:37 | 51.12990 | 13.76666 | 752 ft | 24 kts | 221° |
| 2026-05-06 15:37 | 51.12865 | 13.76494 | 750 ft | 24 kts | 221° |
| 2026-05-06 15:38 | 51.12777 | 13.76488 | 754 ft | 12 kts | 133° |
| 2026-05-06 15:38 | 51.12724 | 13.76554 | 752 ft | 8 kts | 177° |
| 2026-05-06 15:38 | 51.12678 | 13.76508 | 751 ft | 5 kts | 221° |
| 2026-05-06 15:38 | 51.12658 | 13.76479 | 753 ft | 1 kts | 221° |
| 2026-05-06 15:39 | 51.12654 | 13.76474 | 753 ft | 0 kts | 221° |